createdAt,value
2022-08-22T00:02:34.233Z,4.30
2022-08-22T00:02:47.573Z,2.58
2022-08-22T00:08:09.261Z,4.45
2022-08-22T00:13:39.340Z,3.63
2022-08-22T00:19:13.131Z,4.20
2022-08-22T00:24:46.151Z,3.75
2022-08-22T00:30:12.991Z,3.70
2022-08-22T00:35:43.009Z,3.20
2022-08-22T00:41:21.755Z,3.25
2022-08-22T00:47:07.177Z,3.55
2022-08-22T00:52:50.647Z,3.20
2022-08-22T00:58:41.119Z,3.47
2022-08-22T01:04:34.143Z,3.60
2022-08-22T01:10:32.779Z,3.92
2022-08-22T01:16:13.303Z,3.63
2022-08-22T01:21:59.883Z,3.88
2022-08-22T01:27:50.081Z,3.78
2022-08-22T01:33:50.558Z,4.07
2022-08-22T01:39:24.388Z,3.45
2022-08-22T01:45:02.309Z,4.10
2022-08-22T01:50:32.801Z,3.55
2022-08-22T01:56:03.262Z,3.70
2022-08-22T02:01:40.055Z,4.18
2022-08-22T02:07:17.650Z,3.70
2022-08-22T02:13:01.039Z,3.78
2022-08-22T02:18:32.257Z,3.60
2022-08-22T02:24:16.969Z,4.00
2022-08-22T02:30:11.687Z,3.63
2022-08-22T02:36:02.768Z,4.10
2022-08-22T02:41:34.967Z,3.97
2022-08-22T02:47:10.960Z,3.42
2022-08-22T02:52:50.756Z,4.03
2022-08-22T02:58:29.059Z,4.00
2022-08-22T03:04:12.414Z,3.80
2022-08-22T03:09:43.987Z,4.30
2022-08-22T03:15:24.061Z,4.18
2022-08-22T03:20:59.166Z,4.07
2022-08-22T03:26:36.423Z,4.07
2022-08-22T03:32:17.127Z,3.70
2022-08-22T03:37:42.818Z,4.00
2022-08-22T03:43:24.608Z,4.38
2022-08-22T03:49:04.822Z,4.10
2022-08-22T03:55:00.627Z,4.40
2022-08-22T04:00:39.519Z,4.80
2022-08-22T04:06:11.580Z,4.65
2022-08-22T04:11:58.701Z,4.75
2022-08-22T04:17:31.160Z,4.60
2022-08-22T04:23:12.127Z,4.50
2022-08-22T04:28:46.674Z,4.68
2022-08-22T04:34:21.113Z,4.78
2022-08-22T04:40:21.846Z,4.43
2022-08-22T04:46:01.005Z,4.68
2022-08-22T04:51:38.389Z,4.60
2022-08-22T04:57:24.980Z,4.40
2022-08-22T05:02:50.653Z,4.95
2022-08-22T05:08:17.550Z,5.30
2022-08-22T05:13:46.685Z,5.55
2022-08-22T05:19:29.615Z,5.85
2022-08-22T05:25:01.849Z,5.10
2022-08-22T05:30:28.993Z,5.40
2022-08-22T05:35:58.203Z,5.43
2022-08-22T05:41:27.209Z,5.35
2022-08-22T05:47:08.081Z,5.00
2022-08-22T05:52:50.620Z,5.10
2022-08-22T05:58:30.954Z,5.55
2022-08-22T06:03:59.992Z,5.78
2022-08-22T06:09:46.279Z,5.00
2022-08-22T06:15:46.329Z,4.75
2022-08-22T06:21:33.711Z,4.88
2022-08-22T06:27:07.124Z,4.70
2022-08-22T06:32:59.500Z,4.55
2022-08-22T06:38:22.302Z,4.10
2022-08-22T06:43:44.277Z,4.85
2022-08-22T06:49:09.169Z,4.82
2022-08-22T06:54:34.712Z,4.80
2022-08-22T06:59:58.271Z,5.07
2022-08-22T07:05:25.040Z,4.68
2022-08-22T07:11:29.192Z,4.32
2022-08-22T07:17:04.326Z,4.53
2022-08-22T07:22:33.322Z,4.80
2022-08-22T07:28:03.842Z,4.07
2022-08-22T07:33:27.077Z,4.00
2022-08-22T07:39:18.793Z,3.42
2022-08-22T07:44:59.024Z,3.40
2022-08-22T07:50:27.252Z,3.40
2022-08-22T07:55:50.026Z,3.35
2022-08-22T08:01:17.935Z,3.55
2022-08-22T08:06:39.989Z,3.28
2022-08-22T08:12:05.852Z,3.05
2022-08-22T08:17:32.314Z,3.55
2022-08-22T08:22:56.085Z,3.05
2022-08-22T08:28:37.624Z,4.00
2022-08-22T08:34:10.265Z,4.82
2022-08-22T08:39:48.392Z,4.05
2022-08-22T08:45:39.978Z,3.78
2022-08-22T08:51:32.029Z,3.88
2022-08-22T08:57:14.830Z,3.97
2022-08-22T09:02:57.539Z,4.50
2022-08-22T09:09:02.694Z,4.07
2022-08-22T09:14:44.301Z,3.53
2022-08-22T09:20:19.563Z,4.20
2022-08-22T09:26:02.689Z,3.50
2022-08-22T09:37:34.938Z,4.43
2022-08-22T09:43:14.012Z,3.40
2022-08-22T09:48:55.005Z,4.05
2022-08-22T09:54:31.226Z,4.13
2022-08-22T10:00:05.670Z,4.00
2022-08-22T10:05:41.339Z,3.67
2022-08-22T10:11:23.865Z,3.60
2022-08-22T10:17:08.720Z,2.78
2022-08-22T10:22:49.208Z,3.42
2022-08-22T10:28:23.153Z,3.42
2022-08-22T10:34:23.425Z,3.13
2022-08-22T10:40:15.786Z,2.72
2022-08-22T10:45:42.162Z,3.35
2022-08-22T10:51:24.221Z,3.20
2022-08-22T10:57:07.316Z,3.15
2022-08-22T11:02:35.782Z,3.35
2022-08-22T11:08:17.273Z,3.00
2022-08-22T11:13:46.040Z,3.10
2022-08-22T11:19:32.826Z,3.47
2022-08-22T11:25:26.878Z,3.22
2022-08-22T11:31:07.642Z,3.50
2022-08-22T11:36:54.386Z,3.08
2022-08-22T11:42:23.453Z,3.30
2022-08-22T11:47:56.435Z,2.90
2022-08-22T11:53:27.747Z,2.90
2022-08-22T11:58:59.588Z,3.42
2022-08-22T12:04:33.733Z,3.25
2022-08-22T12:10:16.371Z,3.42
2022-08-22T12:16:09.643Z,3.08
2022-08-22T12:21:46.390Z,2.70
2022-08-22T12:27:38.684Z,3.10
2022-08-22T12:33:28.402Z,2.85
2022-08-22T12:38:57.082Z,2.80
2022-08-22T12:44:32.108Z,2.65
2022-08-22T12:50:12.314Z,2.50
2022-08-22T12:55:59.283Z,3.10
2022-08-22T13:01:23.330Z,2.63
2022-08-22T13:07:07.362Z,2.80
2022-08-22T13:12:33.057Z,2.80
2022-08-22T13:18:08.677Z,3.10
2022-08-22T13:23:44.314Z,2.75
2022-08-22T13:29:25.796Z,2.42
2022-08-22T13:34:53.401Z,2.90
2022-08-22T13:40:25.363Z,3.03
2022-08-22T13:46:02.475Z,2.90
2022-08-22T13:51:31.248Z,2.63
2022-08-22T13:57:11.219Z,2.92
2022-08-22T14:02:43.389Z,2.58
2022-08-22T14:08:25.854Z,2.60
2022-08-22T14:14:00.278Z,3.03
2022-08-22T14:19:41.049Z,2.60
2022-08-22T14:25:21.554Z,2.70
2022-08-22T14:31:13.263Z,2.13
2022-08-22T14:36:44.147Z,2.30
2022-08-22T14:42:26.733Z,2.33
2022-08-22T14:48:29.523Z,2.58
2022-08-22T14:53:46.980Z,2.35
2022-08-22T14:59:14.787Z,2.58
2022-08-22T15:04:41.003Z,2.35
2022-08-22T15:10:22.725Z,2.45
2022-08-22T15:15:52.522Z,2.33
2022-08-22T15:21:29.407Z,2.53
2022-08-22T15:26:55.459Z,2.40
2022-08-22T15:32:23.430Z,2.50
2022-08-22T15:38:01.416Z,2.67
2022-08-22T15:43:47.300Z,2.35
2022-08-22T15:49:22.606Z,2.80
2022-08-22T15:54:51.232Z,2.60
2022-08-22T16:00:44.848Z,2.50
2022-08-22T16:06:10.032Z,2.22
2022-08-22T16:11:34.675Z,2.40
2022-08-22T16:17:27.270Z,2.42
2022-08-22T16:22:57.755Z,2.80
2022-08-22T16:29:03.833Z,2.40
2022-08-22T16:34:45.910Z,2.55
2022-08-22T16:40:21.644Z,2.30
2022-08-22T16:45:45.627Z,2.13
2022-08-22T16:51:18.362Z,2.45
2022-08-22T16:57:07.654Z,2.40
2022-08-22T17:02:46.362Z,2.72
2022-08-22T17:08:22.917Z,3.03
2022-08-22T17:14:26.165Z,2.40
2022-08-22T17:19:53.954Z,2.70
2022-08-22T17:25:27.258Z,2.90
2022-08-22T17:31:08.202Z,2.58
2022-08-22T17:36:38.417Z,2.60
2022-08-22T17:42:21.138Z,2.53
2022-08-22T17:47:49.248Z,2.55
2022-08-22T17:53:38.518Z,3.00
2022-08-22T17:59:11.508Z,2.70
2022-08-22T18:04:48.069Z,2.53
2022-08-22T18:10:15.507Z,2.53
2022-08-22T18:15:51.233Z,2.60
2022-08-22T18:21:25.133Z,2.88
2022-08-22T18:26:55.324Z,2.30
2022-08-22T18:32:36.060Z,2.70
2022-08-22T18:38:19.206Z,2.75
2022-08-22T18:43:45.623Z,2.50
2022-08-22T18:49:33.414Z,2.78
2022-08-22T18:55:16.336Z,2.42
2022-08-22T19:00:50.935Z,2.90
2022-08-22T19:06:28.265Z,2.70
2022-08-22T19:12:19.119Z,2.40
2022-08-22T19:18:14.883Z,2.92
2022-08-22T19:23:37.292Z,3.40
2022-08-22T19:29:25.241Z,2.80
2022-08-22T19:34:47.806Z,2.58
2022-08-22T19:40:11.505Z,2.95
2022-08-22T19:45:39.622Z,4.20
2022-08-22T19:51:27.844Z,3.63
2022-08-22T19:57:13.645Z,3.08
2022-08-22T20:02:49.369Z,2.90
2022-08-22T20:08:40.186Z,2.90
2022-08-22T20:14:22.454Z,2.63
2022-08-22T20:25:44.455Z,3.38
2022-08-22T20:31:12.192Z,2.72
2022-08-22T20:36:34.800Z,3.25
2022-08-22T20:42:06.038Z,2.95
2022-08-22T20:47:32.288Z,2.80
2022-08-22T20:53:16.802Z,2.63
2022-08-22T20:58:40.538Z,2.65
2022-08-22T21:04:03.815Z,3.00
2022-08-22T21:09:43.893Z,3.00
2022-08-22T21:15:05.990Z,2.35
2022-08-22T21:20:32.689Z,2.40
2022-08-22T21:26:04.936Z,2.72
2022-08-22T21:31:31.323Z,2.30
2022-08-22T21:36:57.870Z,2.42
2022-08-22T21:42:43.456Z,2.50
2022-08-22T21:48:43.905Z,2.30
2022-08-22T21:54:31.795Z,2.75
2022-08-22T21:59:58.960Z,2.22
2022-08-22T22:05:21.737Z,2.20
2022-08-22T22:10:45.513Z,2.92
2022-08-22T22:16:11.933Z,2.60
2022-08-22T22:21:33.674Z,2.50
2022-08-22T22:26:56.060Z,2.20
2022-08-22T22:32:17.774Z,2.30
2022-08-22T22:37:41.673Z,2.28
2022-08-22T22:43:04.916Z,2.08
2022-08-22T22:48:26.664Z,2.05
2022-08-22T22:53:48.926Z,2.30
2022-08-22T22:59:12.930Z,2.30
2022-08-22T23:04:36.995Z,2.67
2022-08-22T23:09:58.722Z,2.50
2022-08-22T23:15:23.642Z,2.17
2022-08-22T23:20:45.452Z,2.15
2022-08-22T23:26:07.717Z,2.33
2022-08-22T23:31:35.797Z,2.10
2022-08-22T23:36:59.913Z,2.25
2022-08-22T23:42:21.674Z,1.95
2022-08-22T23:47:43.385Z,2.38
2022-08-22T23:53:05.101Z,1.63
2022-08-22T23:58:26.806Z,2.15
